Time;durP1;ratioP1;P1;durP2;ratioP2;P2;SDS_P1;SDS_P2;PMS_P1;PMS_P2;Temp;Humidity;BMP_temperature;BMP_pressure;BME280_temperature;BME280_humidity;BME280_pressure;Samples;Min_cycle;Max_cycle;Signal;HPM_P1;HPM_P2
2022/05/05 03:02:18;;;;;;;0.80;0.80;;;14.50;76.00;;;;;;5312260;23;20586;-73
2022/05/05 03:04:44;;;;;;;0.83;0.83;;;14.50;76.00;;;;;;4996259;28;20508;-72
2022/05/05 03:07:11;;;;;;;0.70;0.70;;;14.50;75.80;;;;;;4996348;28;20477;-72
2022/05/05 03:09:38;;;;;;;0.80;0.80;;;14.50;75.70;;;;;;4996451;28;20453;-72
2022/05/05 03:12:06;;;;;;;1.00;0.70;;;14.50;75.90;;;;;;4995986;28;20866;-72
2022/05/05 03:14:33;;;;;;;0.70;0.70;;;14.40;76.10;;;;;;5114252;23;20839;-68
2022/05/05 03:17:00;;;;;;;0.80;0.80;;;14.40;76.40;;;;;;4995563;28;20441;-69
2022/05/05 03:19:28;;;;;;;0.90;0.90;;;14.40;76.20;;;;;;4995523;28;20461;-67
2022/05/05 03:21:54;;;;;;;0.90;0.90;;;14.40;76.30;;;;;;4995053;28;20438;-68
2022/05/05 03:24:21;;;;;;;0.77;0.77;;;14.40;76.10;;;;;;4995308;28;20473;-67
2022/05/05 03:26:48;;;;;;;0.80;0.80;;;14.40;76.10;;;;;;4994862;28;21003;-67
2022/05/05 03:29:15;;;;;;;0.70;0.70;;;14.40;76.00;;;;;;4995351;28;20511;-69
2022/05/05 03:31:41;;;;;;;0.80;0.80;;;14.40;76.00;;;;;;4995326;28;20461;-68
2022/05/05 03:34:09;;;;;;;1.00;0.90;;;14.40;76.10;;;;;;4995197;28;20445;-68
2022/05/05 03:36:37;;;;;;;0.97;0.97;;;14.40;76.30;;;;;;4995291;28;20460;-69
2022/05/05 03:39:04;;;;;;;0.90;0.90;;;14.10;77.30;;;;;;4995231;28;20445;-69
2022/05/05 03:41:31;;;;;;;0.90;0.90;;;14.00;77.90;;;;;;4995852;28;20906;-69
2022/05/05 03:43:58;;;;;;;1.07;0.97;;;14.00;78.30;;;;;;4994897;28;20460;-70
2022/05/05 03:46:25;;;;;;;0.90;0.90;;;14.10;78.20;;;;;;4994913;28;20506;-68
2022/05/05 03:48:52;;;;;;;0.80;0.80;;;14.10;77.90;;;;;;4994913;28;20581;-68
2022/05/05 03:51:19;;;;;;;0.90;0.90;;;14.20;77.80;;;;;;4995709;28;20778;-68
2022/05/05 03:53:47;;;;;;;0.97;0.90;;;14.30;77.70;;;;;;4994862;28;20500;-68
2022/05/05 03:56:13;;;;;;;0.90;0.90;;;14.30;77.50;;;;;;4994781;28;20465;-68
2022/05/05 03:58:40;;;;;;;0.80;0.80;;;14.40;77.40;;;;;;4995749;28;20453;-69
2022/05/05 04:01:06;;;;;;;0.80;0.80;;;14.40;77.20;;;;;;4995495;28;21007;-69
2022/05/05 04:03:34;;;;;;;1.00;1.00;;;14.40;77.20;;;;;;4995260;28;20445;-69
2022/05/05 04:06:02;;;;;;;0.90;0.90;;;14.50;77.20;;;;;;4995146;28;20568;-69
2022/05/05 04:08:29;;;;;;;0.90;0.90;;;14.50;77.10;;;;;;4995936;28;20485;-69
2022/05/05 04:10:57;;;;;;;0.80;0.80;;;14.50;77.10;;;;;;4995728;28;20457;-69
2022/05/05 04:13:25;;;;;;;0.90;0.90;;;14.60;77.00;;;;;;4996261;28;20461;-69
2022/05/05 04:15:52;;;;;;;0.70;0.70;;;14.60;76.90;;;;;;4995040;28;20498;-69
2022/05/05 04:18:19;;;;;;;0.90;0.90;;;14.60;77.00;;;;;;4995325;28;20453;-69
2022/05/05 04:20:47;;;;;;;0.90;0.90;;;14.60;77.00;;;;;;4995380;28;20519;-69
2022/05/05 04:23:14;;;;;;;1.00;1.00;;;14.60;77.00;;;;;;4995260;28;20848;-69
2022/05/05 04:25:42;;;;;;;0.90;0.90;;;14.60;77.20;;;;;;4995116;28;20461;-69
2022/05/05 04:28:11;;;;;;;0.83;0.83;;;14.60;77.40;;;;;;4994906;28;21026;-68
2022/05/05 04:30:39;;;;;;;0.90;0.90;;;14.60;77.40;;;;;;4995584;28;20441;-69
2022/05/05 04:33:06;;;;;;;1.00;1.00;;;14.70;77.50;;;;;;4995308;28;20499;-68
2022/05/05 04:35:33;;;;;;;1.00;1.00;;;14.70;77.40;;;;;;4994843;28;20473;-69
2022/05/05 04:38:00;;;;;;;0.80;0.80;;;14.80;77.40;;;;;;4995235;28;20449;-69
2022/05/05 04:40:26;;;;;;;0.80;0.80;;;14.80;77.20;;;;;;4995234;28;20453;-69
2022/05/05 04:42:53;;;;;;;0.77;0.77;;;14.80;77.30;;;;;;4994383;28;20449;-68
2022/05/05 04:45:21;;;;;;;0.90;0.90;;;14.90;77.30;;;;;;4993999;28;20473;-68
2022/05/05 04:47:48;;;;;;;0.80;0.80;;;14.90;77.00;;;;;;4994057;28;20543;-68
2022/05/05 04:50:15;;;;;;;0.77;0.77;;;14.90;77.10;;;;;;4994071;28;20469;-68
2022/05/05 04:52:41;;;;;;;0.73;0.73;;;14.90;76.80;;;;;;4993973;28;20541;-68
2022/05/05 04:55:09;;;;;;;1.47;0.87;;;14.90;76.80;;;;;;4993662;28;20524;-68
2022/05/05 04:57:37;;;;;;;0.83;0.83;;;15.00;76.70;;;;;;4993802;28;20449;-68
2022/05/05 05:00:05;;;;;;;0.80;0.80;;;15.00;76.70;;;;;;4993871;28;20453;-68
2022/05/05 05:02:33;;;;;;;0.90;0.90;;;15.00;76.70;;;;;;4993554;28;20855;-68
2022/05/05 05:05:00;;;;;;;0.97;0.97;;;15.10;76.60;;;;;;4993416;28;20821;-68
2022/05/05 05:07:27;;;;;;;0.90;0.90;;;15.10;76.30;;;;;;4993766;28;20508;-68
2022/05/05 05:09:53;;;;;;;1.07;0.97;;;15.10;76.60;;;;;;4993755;28;20449;-68
2022/05/05 05:12:20;;;;;;;0.80;0.80;;;15.00;76.70;;;;;;4993792;28;20457;-68
2022/05/05 05:14:47;;;;;;;0.90;0.90;;;15.10;76.90;;;;;;4993503;28;20539;-68
2022/05/05 05:17:13;;;;;;;0.80;0.80;;;15.10;76.90;;;;;;4997220;28;20495;-68
2022/05/05 05:19:41;;;;;;;0.80;0.80;;;15.20;76.90;;;;;;4997445;28;20944;-68
2022/05/05 05:22:08;;;;;;;1.10;1.10;;;15.20;76.90;;;;;;4997475;28;20948;-68
2022/05/05 05:24:35;;;;;;;0.80;0.80;;;15.30;76.80;;;;;;4997442;28;20508;-68
2022/05/05 05:27:01;;;;;;;0.80;0.80;;;15.40;76.90;;;;;;4997751;28;20450;-69
2022/05/05 05:29:28;;;;;;;0.90;0.90;;;15.40;76.80;;;;;;4997783;28;20507;-68
2022/05/05 05:31:55;;;;;;;0.97;0.97;;;15.50;76.90;;;;;;4997720;28;20461;-68
2022/05/05 05:34:21;;;;;;;0.90;0.90;;;15.50;76.80;;;;;;4997650;28;20855;-68
2022/05/05 05:36:49;;;;;;;0.90;0.90;;;15.50;76.70;;;;;;4997589;28;20453;-68
2022/05/05 05:39:17;;;;;;;0.93;0.90;;;15.50;76.50;;;;;;4997707;28;20445;-68
2022/05/05 05:41:44;;;;;;;0.93;0.93;;;15.50;76.50;;;;;;4997502;28;20540;-68
2022/05/05 05:44:11;;;;;;;1.00;1.00;;;15.60;76.40;;;;;;4997178;28;20863;-69
2022/05/05 05:46:38;;;;;;;1.20;1.20;;;15.60;76.30;;;;;;4997527;28;20500;-68
2022/05/05 05:49:05;;;;;;;0.93;0.93;;;15.60;76.20;;;;;;4997413;28;20536;-68
2022/05/05 05:51:32;;;;;;;1.30;1.20;;;15.50;76.40;;;;;;4997397;28;20460;-68
2022/05/05 05:54:00;;;;;;;0.90;0.90;;;15.50;76.30;;;;;;4997346;28;20476;-69
2022/05/05 05:56:26;;;;;;;1.20;1.10;;;15.60;76.40;;;;;;4997268;28;20476;-69
2022/05/05 05:58:53;;;;;;;1.00;1.00;;;15.70;76.50;;;;;;4998000;28;20444;-69
2022/05/05 06:01:20;;;;;;;0.80;0.80;;;15.80;76.20;;;;;;4997927;28;20547;-69
2022/05/05 06:03:56;;;;;;;0.90;0.90;;;15.90;75.70;;;;;;4997421;28;20503;-69
2022/05/05 06:06:24;;;;;;;0.90;0.90;;;15.90;74.80;;;;;;4997076;28;20436;-68
2022/05/05 06:08:51;;;;;;;1.10;1.00;;;16.00;74.60;;;;;;4997022;28;20484;-68
2022/05/05 06:11:21;;;;;;;0.90;0.90;;;16.00;75.00;;;;;;4997061;28;20445;-68
2022/05/05 06:13:48;;;;;;;0.90;0.90;;;16.00;74.90;;;;;;4997007;28;20457;-69
2022/05/05 06:16:15;;;;;;;0.80;0.80;;;16.10;73.40;;;;;;4996490;28;20576;-69
2022/05/05 06:18:41;;;;;;;0.70;0.70;;;16.10;73.60;;;;;;4996899;28;20444;-69
2022/05/05 06:21:08;;;;;;;0.93;0.93;;;16.10;73.60;;;;;;4996893;28;20499;-68
2022/05/05 06:23:37;;;;;;;0.87;0.87;;;16.20;73.80;;;;;;4997606;28;20449;-69
2022/05/05 06:26:05;;;;;;;1.10;1.10;;;16.30;73.70;;;;;;4996560;28;20572;-69
2022/05/05 06:28:34;;;;;;;0.83;0.83;;;16.30;72.70;;;;;;4996402;28;20539;-68
2022/05/05 06:31:00;;;;;;;0.80;0.80;;;16.50;72.60;;;;;;4996698;28;20507;-68
2022/05/05 06:33:27;;;;;;;0.90;0.90;;;16.60;72.40;;;;;;4996635;28;20450;-68
2022/05/05 06:35:54;;;;;;;0.90;0.90;;;16.70;72.40;;;;;;4996568;28;20556;-68
2022/05/05 06:38:21;;;;;;;1.00;0.90;;;16.70;71.70;;;;;;4996605;28;20857;-69
2022/05/05 06:40:47;;;;;;;0.80;0.80;;;16.80;71.50;;;;;;4996497;28;20887;-70
2022/05/05 06:43:14;;;;;;;1.00;1.00;;;16.80;70.10;;;;;;4996485;28;20519;-69
2022/05/05 06:45:42;;;;;;;0.90;0.90;;;16.90;70.80;;;;;;4996374;28;20480;-68
2022/05/05 06:48:09;;;;;;;1.00;0.90;;;16.90;71.50;;;;;;4996172;28;20485;-68
2022/05/05 06:50:36;;;;;;;0.80;0.80;;;16.90;70.40;;;;;;4996352;28;20461;-68
2022/05/05 06:53:02;;;;;;;1.00;1.00;;;16.80;70.70;;;;;;4996167;28;20527;-68
2022/05/05 06:55:29;;;;;;;0.93;0.93;;;16.80;70.10;;;;;;4996053;28;20536;-68
2022/05/05 06:57:56;;;;;;;1.00;1.00;;;16.80;70.00;;;;;;4996058;28;20449;-68
2022/05/05 07:00:22;;;;;;;1.00;0.90;;;16.80;69.90;;;;;;4996116;28;20445;-68
2022/05/05 07:02:50;;;;;;;0.90;0.90;;;16.90;70.00;;;;;;4996108;28;20503;-69
2022/05/05 07:05:27;;;;;;;0.90;0.90;;;16.80;70.50;;;;;;4995843;28;20531;-69
2022/05/05 07:07:54;;;;;;;0.90;0.90;;;16.80;70.00;;;;;;4996022;28;20829;-68
2022/05/05 07:13:06;;;;;;;0.87;0.87;;;16.70;71.40;;;;;;4996038;28;20413;-67
2022/05/05 07:15:34;;;;;;;0.93;0.93;;;16.60;72.00;;;;;;4995379;28;20619;-67
2022/05/05 07:18:04;;;;;;;0.90;0.90;;;16.70;71.70;;;;;;4996212;28;20962;-67
2022/05/05 07:20:31;;;;;;;1.17;1.17;;;16.70;72.00;;;;;;4995684;28;20453;-67
2022/05/05 07:22:57;;;;;;;1.20;1.10;;;16.60;71.40;;;;;;4995617;28;20453;-68
2022/05/05 07:25:24;;;;;;;1.00;1.00;;;16.50;71.60;;;;;;4995210;28;21059;-68
2022/05/05 07:27:51;;;;;;;1.10;1.10;;;16.40;72.10;;;;;;4995313;28;20485;-68
2022/05/05 07:30:18;;;;;;;1.00;1.00;;;16.50;72.40;;;;;;4995553;28;20480;-67
2022/05/05 07:32:45;;;;;;;0.93;0.93;;;16.60;72.60;;;;;;4995493;28;20544;-67
2022/05/05 07:35:13;;;;;;;1.20;1.20;;;16.70;73.00;;;;;;4995092;28;20984;-67
2022/05/05 07:37:40;;;;;;;1.00;1.00;;;16.60;73.10;;;;;;4995338;28;20445;-67
2022/05/05 07:40:08;;;;;;;1.70;1.17;;;16.70;72.30;;;;;;4994665;28;20507;-69
2022/05/05 07:42:35;;;;;;;1.10;1.10;;;16.80;72.50;;;;;;4996479;28;20449;-67
2022/05/05 07:45:02;;;;;;;1.10;1.10;;;16.70;72.00;;;;;;4995182;28;20473;-69
2022/05/05 07:47:29;;;;;;;1.30;1.20;;;16.70;73.10;;;;;;4995186;28;20507;-67
2022/05/05 07:49:56;;;;;;;0.90;0.90;;;16.70;73.30;;;;;;4995031;28;20492;-70
2022/05/05 07:52:24;;;;;;;1.63;1.20;;;16.60;73.40;;;;;;4995239;28;20449;-71
2022/05/05 07:54:50;;;;;;;1.00;1.00;;;16.60;72.90;;;;;;4994761;28;20988;-69
2022/05/05 07:57:20;;;;;;;1.20;1.10;;;16.60;73.30;;;;;;4995046;28;20453;-71
2022/05/05 07:59:47;;;;;;;1.10;1.10;;;16.60;73.30;;;;;;4994899;28;20451;-69
2022/05/05 08:02:15;;;;;;;1.27;1.17;;;16.60;72.70;;;;;;4994633;28;20944;-67
2022/05/05 08:04:42;;;;;;;1.00;1.00;;;16.60;72.80;;;;;;4994443;28;20477;-70
2022/05/05 08:07:10;;;;;;;1.50;1.40;;;16.60;72.70;;;;;;4994642;28;20944;-69
2022/05/05 08:09:38;;;;;;;1.10;1.10;;;16.60;72.60;;;;;;4994396;28;21008;-70
2022/05/05 08:12:07;;;;;;;1.20;1.20;;;16.70;72.20;;;;;;4994477;28;21011;-70
2022/05/05 08:14:34;;;;;;;1.33;1.33;;;16.60;72.70;;;;;;4994411;28;20487;-68
2022/05/05 08:17:01;;;;;;;1.33;1.33;;;16.70;72.10;;;;;;4994728;28;20436;-68
2022/05/05 08:19:27;;;;;;;1.03;1.03;;;16.70;72.50;;;;;;4994582;28;20456;-69
2022/05/05 08:21:54;;;;;;;1.00;1.00;;;16.70;72.30;;;;;;4994643;28;20453;-68
2022/05/05 08:29:51;;;;;;;1.30;1.30;;;16.90;71.70;;;;;;4994409;28;20468;-67
2022/05/05 08:32:18;;;;;;;1.10;1.10;;;17.00;71.80;;;;;;4994709;28;20496;-68
2022/05/05 08:34:45;;;;;;;1.10;1.00;;;16.90;71.90;;;;;;4994333;28;20481;-68
2022/05/05 08:37:12;;;;;;;1.10;1.10;;;17.00;71.90;;;;;;4994416;28;20453;-68
2022/05/05 08:39:39;;;;;;;0.90;0.90;;;17.10;71.50;;;;;;4994355;28;20504;-67
2022/05/05 08:42:08;;;;;;;1.20;1.10;;;17.10;71.40;;;;;;4994314;28;20536;-68
2022/05/05 08:44:34;;;;;;;1.30;1.20;;;17.10;70.90;;;;;;4994100;28;20543;-68
2022/05/05 08:47:03;;;;;;;1.17;1.17;;;17.10;71.10;;;;;;4994183;28;20445;-68
2022/05/05 08:49:32;;;;;;;1.10;1.10;;;17.10;71.50;;;;;;4993751;28;20477;-68
2022/05/05 08:52:01;;;;;;;1.13;1.13;;;17.10;70.90;;;;;;4994214;28;20457;-68
2022/05/05 08:54:31;;;;;;;1.20;1.10;;;17.10;71.40;;;;;;4993704;28;21006;-68
2022/05/05 08:56:57;;;;;;;1.40;1.40;;;17.20;71.60;;;;;;4993728;28;20795;-68
2022/05/05 08:59:26;;;;;;;1.43;1.33;;;17.10;71.00;;;;;;4993706;28;20872;-68
2022/05/05 09:01:52;;;;;;;1.07;1.07;;;17.00;71.60;;;;;;4993966;28;20516;-68
2022/05/05 09:04:20;;;;;;;1.07;1.00;;;17.10;71.60;;;;;;4993913;28;20504;-68
2022/05/05 09:06:48;;;;;;;1.47;1.37;;;17.20;72.30;;;;;;4993877;28;20453;-67
2022/05/05 09:09:26;;;;;;;1.53;1.37;;;17.00;71.80;;;;;;4993564;28;20867;-70
2022/05/05 09:12:11;;;;;;;1.20;1.10;;;17.10;72.10;;;;;;4993599;28;20515;-70
2022/05/05 09:14:41;;;;;;;1.33;1.33;;;17.20;71.90;;;;;;5002439;23;20515;-70
2022/05/05 09:17:10;;;;;;;1.40;1.30;;;17.30;71.20;;;;;;4993943;28;20440;-70
2022/05/05 09:19:38;;;;;;;1.50;1.40;;;17.30;70.60;;;;;;4993820;28;20448;-70
2022/05/05 09:22:06;;;;;;;1.40;1.40;;;17.30;70.30;;;;;;4993711;28;20445;-70
2022/05/05 09:24:36;;;;;;;1.47;1.40;;;17.30;70.50;;;;;;4993678;28;20521;-70
2022/05/05 09:27:16;;;;;;;1.20;1.20;;;17.10;70.40;;;;;;4993748;28;20449;-69
2022/05/05 09:29:54;;;;;;;1.67;1.57;;;17.10;70.80;;;;;;4993607;28;20980;-69
2022/05/05 09:32:21;;;;;;;1.60;1.50;;;17.00;72.20;;;;;;4993547;28;20897;-69
2022/05/05 09:34:56;;;;;;;2.00;1.90;;;17.00;70.20;;;;;;4993874;28;20556;-68
2022/05/05 09:37:23;;;;;;;1.40;1.30;;;17.00;70.90;;;;;;4993601;28;20453;-68
2022/05/05 09:39:54;;;;;;;1.77;1.67;;;17.10;71.10;;;;;;4993717;28;20445;-69
2022/05/05 09:42:41;;;;;;;1.40;1.30;;;17.10;71.20;;;;;;4993623;28;20536;-69
2022/05/05 09:45:14;;;;;;;1.50;1.43;;;17.00;70.40;;;;;;4993507;28;20462;-69
2022/05/05 09:47:41;;;;;;;1.70;1.60;;;17.10;70.80;;;;;;4993624;28;20503;-69
2022/05/05 09:50:09;;;;;;;1.63;1.47;;;17.10;70.60;;;;;;4993273;28;20477;-69
2022/05/05 09:58:10;;;;;;;1.67;1.57;;;17.10;71.30;;;;;;4993533;28;20417;-69
2022/05/05 10:00:49;;;;;;;1.83;1.73;;;16.90;71.10;;;;;;4993449;28;20480;-68
2022/05/05 10:06:16;;;;;;;1.77;1.67;;;17.10;71.60;;;;;;4996883;28;20451;-69
2022/05/05 10:08:45;;;;;;;1.67;1.57;;;17.20;71.60;;;;;;4997092;28;20563;-69
2022/05/05 10:11:14;;;;;;;1.80;1.70;;;16.90;71.60;;;;;;4997101;28;20536;-69
2022/05/05 10:13:41;;;;;;;1.60;1.50;;;16.90;71.60;;;;;;4996931;28;20459;-69
2022/05/05 10:16:10;;;;;;;1.63;1.53;;;16.70;72.30;;;;;;4996640;28;20484;-69
2022/05/05 10:18:38;;;;;;;1.90;1.70;;;16.50;73.40;;;;;;4996879;28;20444;-68
2022/05/05 10:21:07;;;;;;;1.50;1.40;;;16.20;73.70;;;;;;4996623;28;20445;-69
2022/05/05 10:23:43;;;;;;;1.50;1.40;;;16.30;74.20;;;;;;4996881;28;20461;-69
2022/05/05 10:26:11;;;;;;;1.30;1.30;;;16.60;74.10;;;;;;4996344;28;20988;-69
2022/05/05 10:28:44;;;;;;;1.40;1.40;;;16.50;73.40;;;;;;4996638;28;20452;-69
2022/05/05 10:31:13;;;;;;;1.80;1.70;;;16.40;74.00;;;;;;4996553;28;20524;-69
2022/05/05 10:33:58;;;;;;;1.87;1.77;;;16.50;73.60;;;;;;4996608;28;20532;-69
2022/05/05 10:36:25;;;;;;;1.30;1.30;;;16.60;73.90;;;;;;4996247;28;20885;-69
2022/05/05 10:38:52;;;;;;;1.87;1.77;;;16.80;73.20;;;;;;4996474;28;20453;-69
2022/05/05 10:41:39;;;;;;;1.60;1.50;;;16.80;73.50;;;;;;4997222;28;20453;-71
2022/05/05 10:44:23;;;;;;;1.63;1.53;;;16.90;72.80;;;;;;4996572;28;20520;-69
2022/05/05 10:47:02;;;;;;;1.60;1.50;;;17.00;72.00;;;;;;4997451;28;20481;-69
2022/05/05 10:49:46;;;;;;;2.03;1.93;;;17.20;71.20;;;;;;4996318;28;20476;-69
2022/05/05 10:52:29;;;;;;;1.90;1.80;;;17.30;71.10;;;;;;4997591;28;20541;-69
2022/05/05 10:54:56;;;;;;;1.90;1.80;;;17.40;71.00;;;;;;4996283;28;20540;-69
2022/05/05 10:57:42;;;;;;;2.23;2.03;;;17.30;72.70;;;;;;4996241;28;20453;-69
2022/05/05 11:00:10;;;;;;;1.90;1.80;;;17.30;73.40;;;;;;4996478;28;20444;-69
2022/05/05 11:02:39;;;;;;;1.80;1.70;;;17.40;73.10;;;;;;4996870;28;20519;-69
2022/05/05 11:05:24;;;;;;;1.93;1.83;;;17.40;73.60;;;;;;4996035;28;20512;-69
2022/05/05 11:07:51;;;;;;;1.63;1.53;;;17.50;73.70;;;;;;4995998;28;20544;-70
2022/05/05 11:10:44;;;;;;;1.90;1.80;;;17.60;73.10;;;;;;4995654;28;20477;-69
2022/05/05 11:13:36;;;;;;;2.17;2.07;;;17.60;73.60;;;;;;4995795;28;20535;-69
2022/05/05 11:22:09;;;;;;;1.80;1.70;;;17.80;73.50;;;;;;4995439;28;20895;-69
2022/05/05 11:24:36;;;;;;;2.20;2.10;;;17.90;73.30;;;;;;4995489;28;20445;-70
2022/05/05 11:27:03;;;;;;;2.30;2.10;;;17.90;72.30;;;;;;4995800;28;21026;-69
2022/05/05 11:29:30;;;;;;;1.93;1.83;;;17.80;72.90;;;;;;4995440;28;20485;-69
2022/05/05 11:31:58;;;;;;;2.00;1.90;;;17.80;73.90;;;;;;4995318;28;20548;-69
2022/05/05 11:34:33;;;;;;;1.70;1.60;;;17.80;74.00;;;;;;4995189;28;20540;-69
2022/05/05 11:37:01;;;;;;;2.00;1.90;;;17.90;74.10;;;;;;4994957;28;20975;-69
2022/05/05 11:39:28;;;;;;;1.57;1.57;;;17.80;73.80;;;;;;4995032;28;20527;-69
2022/05/05 11:41:59;;;;;;;1.87;1.77;;;17.70;74.20;;;;;;4995100;28;20445;-69
2022/05/05 11:44:27;;;;;;;2.10;2.00;;;17.70;74.50;;;;;;4995048;28;20457;-69
2022/05/05 11:46:54;;;;;;;2.00;1.90;;;17.60;75.40;;;;;;4995088;28;20488;-69
2022/05/05 11:49:21;;;;;;;1.73;1.63;;;17.70;75.90;;;;;;4994961;28;20491;-69
2022/05/05 11:51:49;;;;;;;1.90;1.80;;;17.70;76.00;;;;;;4994987;28;20457;-69
2022/05/05 11:54:24;;;;;;;1.90;1.80;;;17.70;76.50;;;;;;4994427;28;20921;-69
2022/05/05 11:56:53;;;;;;;1.60;1.50;;;17.80;76.80;;;;;;4994832;28;20491;-68
2022/05/05 12:02:09;;;;;;;1.80;1.70;;;17.80;76.10;;;;;;4994768;28;20409;-69
2022/05/05 12:04:37;;;;;;;2.20;2.10;;;17.70;76.20;;;;;;4994245;28;20992;-70
2022/05/05 12:07:07;;;;;;;1.63;1.53;;;17.80;76.20;;;;;;4994781;28;20459;-69
2022/05/05 12:09:34;;;;;;;1.67;1.60;;;17.80;75.50;;;;;;4994775;28;20469;-70
2022/05/05 12:12:18;;;;;;;1.80;1.70;;;17.80;75.70;;;;;;4994653;28;20504;-69
2022/05/05 12:14:47;;;;;;;1.53;1.43;;;17.90;75.70;;;;;;4995078;28;20527;-69
2022/05/05 12:17:17;;;;;;;1.77;1.67;;;17.90;75.50;;;;;;4994518;28;20438;-69
2022/05/05 12:19:46;;;;;;;2.10;2.00;;;18.10;76.00;;;;;;4994678;28;20434;-69
2022/05/05 12:22:14;;;;;;;1.80;1.70;;;18.10;75.80;;;;;;4994519;28;20453;-68
2022/05/05 12:24:45;;;;;;;1.50;1.50;;;18.10;74.60;;;;;;4994289;28;20836;-69
2022/05/05 12:27:12;;;;;;;1.70;1.60;;;18.20;74.20;;;;;;4994583;28;20868;-68
2022/05/05 12:29:40;;;;;;;1.87;1.77;;;18.30;74.10;;;;;;4994424;28;20893;-69
2022/05/05 12:32:11;;;;;;;1.50;1.50;;;18.30;73.00;;;;;;4994440;28;20453;-69
2022/05/05 12:34:39;;;;;;;1.80;1.70;;;18.40;72.60;;;;;;4994377;28;20445;-69
2022/05/05 12:37:12;;;;;;;2.10;2.00;;;18.50;71.70;;;;;;4994447;28;20457;-69
2022/05/05 12:39:57;;;;;;;2.00;1.90;;;18.60;72.20;;;;;;4994471;28;20449;-69
2022/05/05 12:42:25;;;;;;;2.00;1.90;;;19.00;71.80;;;;;;4994438;28;20438;-69
2022/05/05 12:44:52;;;;;;;1.57;1.47;;;19.30;71.80;;;;;;4994389;28;20480;-69
2022/05/05 12:47:23;;;;;;;1.77;1.67;;;19.40;71.10;;;;;;4994469;28;20503;-69
2022/05/05 12:49:51;;;;;;;1.70;1.60;;;19.60;70.40;;;;;;4993867;28;21055;-69
2022/05/05 13:00:49;;;;;;;1.77;1.67;;;19.50;69.50;;;;;;4994121;28;20405;-70
2022/05/05 13:03:18;;;;;;;1.50;1.50;;;19.40;69.70;;;;;;4994115;28;20516;-70
2022/05/05 13:05:46;;;;;;;1.93;1.83;;;19.40;69.80;;;;;;4993684;28;20999;-69
2022/05/05 13:08:13;;;;;;;1.60;1.60;;;19.20;70.80;;;;;;4993623;28;20991;-70
2022/05/05 13:10:41;;;;;;;2.07;1.97;;;19.30;70.20;;;;;;4993647;28;21003;-70
2022/05/05 13:13:07;;;;;;;2.00;1.90;;;19.10;70.70;;;;;;4993880;28;20507;-70
2022/05/05 13:15:34;;;;;;;2.20;2.10;;;19.10;70.40;;;;;;4993709;28;20480;-70
2022/05/05 13:18:01;;;;;;;2.20;2.10;;;19.20;71.20;;;;;;4994005;28;20453;-69
2022/05/05 13:20:27;;;;;;;2.10;2.00;;;19.20;70.60;;;;;;4993966;28;20503;-69
2022/05/05 13:22:54;;;;;;;1.90;1.80;;;19.40;71.50;;;;;;4993799;28;20453;-69
2022/05/05 13:25:21;;;;;;;1.90;1.80;;;19.50;69.90;;;;;;4993526;28;21047;-69
2022/05/05 13:27:49;;;;;;;1.80;1.70;;;19.60;68.90;;;;;;4993949;28;20507;-70
2022/05/05 13:30:16;;;;;;;2.10;2.00;;;19.70;68.80;;;;;;4993830;28;20831;-70
2022/05/05 13:32:43;;;;;;;1.90;1.80;;;19.80;68.70;;;;;;4993835;28;20551;-70
2022/05/05 13:35:10;;;;;;;1.70;1.60;;;19.80;68.40;;;;;;4993728;28;20477;-70
2022/05/05 13:37:38;;;;;;;2.10;2.00;;;19.90;68.90;;;;;;4995880;28;20457;-69
2022/05/05 13:40:08;;;;;;;1.70;1.60;;;19.80;68.40;;;;;;4997602;28;20535;-69
2022/05/05 13:42:35;;;;;;;1.90;1.80;;;19.70;68.80;;;;;;4997645;28;20448;-70
2022/05/05 13:45:04;;;;;;;1.90;1.80;;;19.70;68.50;;;;;;4997429;28;20480;-69
2022/05/05 13:47:31;;;;;;;1.97;1.87;;;19.70;67.50;;;;;;4997244;28;20441;-70
2022/05/05 13:49:57;;;;;;;1.57;1.57;;;19.60;67.20;;;;;;4996968;28;20491;-70
2022/05/05 13:52:24;;;;;;;1.67;1.63;;;19.60;67.80;;;;;;4997109;28;20623;-69
2022/05/05 13:54:51;;;;;;;1.73;1.73;;;19.50;67.40;;;;;;4997214;28;21004;-69
2022/05/05 13:57:17;;;;;;;1.50;1.50;;;19.50;68.10;;;;;;4997055;28;20995;-69
2022/05/05 13:59:45;;;;;;;1.60;1.50;;;19.50;67.50;;;;;;4997190;28;20576;-70
2022/05/05 14:02:13;;;;;;;1.80;1.70;;;19.40;68.30;;;;;;4997318;28;20865;-69
2022/05/05 14:04:39;;;;;;;1.87;1.70;;;19.40;69.30;;;;;;4997088;28;20599;-69
2022/05/05 14:07:06;;;;;;;1.67;1.57;;;19.60;68.00;;;;;;4997138;28;20507;-69
2022/05/05 14:12:17;;;;;;;1.53;1.43;;;19.80;68.90;;;;;;4996876;28;20424;-69
2022/05/05 14:14:44;;;;;;;1.50;1.40;;;20.10;67.00;;;;;;4996893;28;20908;-70
2022/05/05 14:17:13;;;;;;;1.70;1.60;;;20.20;66.10;;;;;;4997026;28;20441;-70
2022/05/05 14:19:40;;;;;;;1.33;1.33;;;20.30;66.70;;;;;;4996832;28;20460;-69
2022/05/05 14:22:07;;;;;;;1.20;1.20;;;20.40;66.80;;;;;;4996841;28;20457;-69
2022/05/05 14:24:34;;;;;;;1.40;1.40;;;20.40;66.60;;;;;;4996497;28;20441;-69
2022/05/05 14:27:02;;;;;;;1.90;1.80;;;20.50;64.90;;;;;;4996746;28;20449;-69
2022/05/05 14:29:29;;;;;;;1.57;1.47;;;20.30;66.10;;;;;;4996797;28;20445;-70
2022/05/05 14:31:56;;;;;;;1.40;1.30;;;20.40;66.30;;;;;;4996622;28;20543;-69
2022/05/05 14:34:24;;;;;;;1.80;1.70;;;20.70;64.90;;;;;;4996340;28;21039;-70
2022/05/05 14:36:51;;;;;;;1.40;1.30;;;20.80;65.90;;;;;;4996677;28;20544;-69
2022/05/05 14:39:18;;;;;;;1.60;1.50;;;20.90;64.10;;;;;;4996574;28;20480;-69
2022/05/05 14:41:45;;;;;;;1.30;1.30;;;20.90;63.40;;;;;;4996569;28;20453;-70
2022/05/05 14:44:11;;;;;;;1.40;1.40;;;20.80;63.30;;;;;;4997531;28;20496;-70
2022/05/05 14:46:38;;;;;;;1.67;1.57;;;20.80;63.90;;;;;;4996261;28;20477;-70
2022/05/05 14:49:05;;;;;;;1.40;1.40;;;20.70;63.80;;;;;;4995702;28;20916;-69
2022/05/05 14:51:33;;;;;;;1.30;1.30;;;20.70;63.50;;;;;;4996244;28;20491;-69
2022/05/05 14:53:59;;;;;;;1.60;1.50;;;20.70;63.20;;;;;;4995953;28;20870;-69
2022/05/05 14:56:26;;;;;;;1.40;1.30;;;20.70;64.10;;;;;;4995904;28;20465;-70
2022/05/05 14:58:53;;;;;;;1.60;1.50;;;20.80;63.30;;;;;;4996186;28;20531;-69
2022/05/05 15:01:21;;;;;;;1.27;1.27;;;20.60;64.20;;;;;;4996231;28;20453;-70
2022/05/05 15:03:48;;;;;;;1.10;1.10;;;20.70;62.90;;;;;;4996096;28;20572;-69
2022/05/05 15:06:16;;;;;;;1.13;1.13;;;20.90;63.10;;;;;;4995894;28;20508;-69
2022/05/05 15:08:44;;;;;;;1.30;1.30;;;21.00;62.40;;;;;;4995802;28;20449;-69
2022/05/05 15:11:11;;;;;;;1.50;1.40;;;21.20;63.40;;;;;;4996008;28;20535;-69
2022/05/05 15:13:38;;;;;;;1.30;1.20;;;21.40;62.80;;;;;;4996031;28;20527;-69
2022/05/05 15:16:05;;;;;;;1.77;1.67;;;21.40;61.90;;;;;;5116294;23;20500;-73
2022/05/05 15:18:32;;;;;;;1.70;1.60;;;21.00;62.80;;;;;;4996138;28;20499;-74
2022/05/05 15:20:59;;;;;;;1.50;1.50;;;20.50;63.90;;;;;;4996259;28;20453;-75
2022/05/05 15:23:26;;;;;;;1.73;1.63;;;20.40;64.30;;;;;;4996066;28;20461;-75
2022/05/05 15:25:54;;;;;;;1.67;1.57;;;20.40;64.30;;;;;;4995633;28;20531;-74
2022/05/05 15:28:20;;;;;;;1.80;1.70;;;20.60;64.40;;;;;;4995780;28;20445;-74
2022/05/05 15:30:47;;;;;;;2.03;1.93;;;20.40;64.60;;;;;;4995361;28;21062;-74
2022/05/05 15:33:14;;;;;;;1.90;1.80;;;20.50;64.60;;;;;;4995665;28;20847;-74
2022/05/05 15:35:40;;;;;;;2.20;2.10;;;20.60;65.90;;;;;;4995224;28;20984;-74
2022/05/05 15:38:08;;;;;;;1.90;1.80;;;20.70;64.70;;;;;;4995548;28;20456;-75
2022/05/05 15:40:35;;;;;;;2.30;2.20;;;20.60;64.50;;;;;;4995485;28;20453;-75
2022/05/05 15:43:03;;;;;;;2.07;1.97;;;20.30;64.70;;;;;;4995112;28;20891;-74
2022/05/05 15:45:31;;;;;;;2.10;2.00;;;20.10;65.80;;;;;;4994952;28;21047;-75
2022/05/05 15:47:57;;;;;;;2.03;1.93;;;20.10;64.60;;;;;;4995391;28;20453;-75
2022/05/05 15:50:25;;;;;;;2.10;2.00;;;19.90;65.40;;;;;;4995195;28;20480;-75
2022/05/05 15:52:51;;;;;;;2.00;1.90;;;19.70;65.50;;;;;;4995279;28;20543;-75
2022/05/05 15:55:19;;;;;;;2.20;2.10;;;19.80;65.50;;;;;;4995177;28;20476;-75
2022/05/05 15:57:47;;;;;;;1.97;1.87;;;19.80;65.90;;;;;;4995144;28;20455;-76
2022/05/05 16:00:16;;;;;;;2.10;2.00;;;19.90;65.10;;;;;;4994368;28;20457;-76
2022/05/05 16:02:45;;;;;;;2.13;2.03;;;19.80;64.70;;;;;;4994844;28;20941;-76
2022/05/05 16:05:13;;;;;;;2.10;2.00;;;19.60;65.20;;;;;;4995017;28;20904;-77
2022/05/05 16:07:40;;;;;;;2.27;2.17;;;19.60;65.60;;;;;;4995025;28;20505;-75
2022/05/05 16:10:07;;;;;;;2.60;2.50;;;19.50;65.70;;;;;;4994960;28;20500;-76
2022/05/05 16:12:35;;;;;;;2.30;2.20;;;19.40;65.80;;;;;;4994919;28;20441;-76
2022/05/05 16:15:01;;;;;;;2.67;2.57;;;19.10;66.50;;;;;;4994503;28;20820;-76
2022/05/05 16:17:29;;;;;;;2.30;2.20;;;18.90;67.40;;;;;;4994436;28;20461;-76
2022/05/05 16:19:56;;;;;;;2.33;2.23;;;18.80;67.90;;;;;;4994742;28;20504;-75
2022/05/05 16:22:24;;;;;;;2.33;2.23;;;18.70;67.90;;;;;;4994761;28;20449;-75
2022/05/05 16:30:20;;;;;;;2.40;2.30;;;18.60;69.00;;;;;;4994590;28;20408;-76
2022/05/05 16:32:51;;;;;;;2.10;2.00;;;18.60;68.70;;;;;;4994567;28;20453;-76
2022/05/05 16:35:18;;;;;;;2.57;2.47;;;18.60;69.10;;;;;;4994497;28;20477;-76
2022/05/05 16:37:47;;;;;;;2.80;2.70;;;18.70;68.70;;;;;;4994476;28;20464;-76